Portada
METAR-TAF:

METAR-TAF

Aeropuertos :

Foz do Iguaçu, Paraná, Brasil

Aeropuerto Internacional de Foz do Iguaçu

latitud: 25-31S, longitud: 054-35W, altitud: 180 m

Observación

El informe se hizo hace 25 minutos, a las 04:00 UTC
Viento 8 kt del este
Temperatura 23°C
Humedad 69%
Presión 1017 hPa
Visibilidad 10 km o más
sin nubes por debajo de 1500 m y sin presencia de cumulonimbus.

METAR: SBFI 250400Z 10008KT CAVOK 23/17 Q1017

Hora: 01:25 (04:25 UTC)

Pronóstico

El informe se hizo hace 6 horas y 55 minutos, a las 21:30 UTC
Pronóstico válido del 25 a las 00 UTC al 25 a las 24 UTC
Viento 7 kt del este-sureste
Visibilidad 10 km o más
sin nubes por debajo de 1500 m y sin presencia de cumulonimbus.

TAF: SBFI 242130Z 2500/2524 11007KT CAVOK TN19/2509Z TX31/2518Z RMK PD W

Observaciones y pronósticos meteorológicos de más de 4000 aeropuertos (mensajes METAR y TAF).

Los puntos amarillos y rojos representan las estaciones disponibles.

Ponga el ratón en el punto deseado para ver el nombre de la estación.

Haga clic para ver las observaciones y los pronósticos meteorológicos.

Para cambiar el mapa : haga clic en los botones verdes con una cruz de color negro para hacer un zoom, en el botón verde con un guión para alejar o en las flechas verdes para mapas adyacentes.


METAR-TAF: